createdAt,value
2017-02-11T00:00:52.615Z,78.91
2017-02-11T00:01:53.285Z,79.15
2017-02-11T00:02:53.665Z,79.13
2017-02-11T00:03:54.196Z,79.25
2017-02-11T00:04:54.726Z,79.17
2017-02-11T00:05:55.252Z,79.28
2017-02-11T00:06:55.786Z,79.31
2017-02-11T00:07:56.312Z,79.23
2017-02-11T00:08:56.853Z,79.28
2017-02-11T00:09:57.383Z,79.28
2017-02-11T00:10:58.054Z,79.25
2017-02-11T00:11:58.589Z,79.44
2017-02-11T00:12:58.973Z,79.23
2017-02-11T00:13:59.509Z,79.10
2017-02-11T00:15:00.330Z,79.05
2017-02-11T00:16:00.567Z,79.07
2017-02-11T00:17:01.090Z,78.86
2017-02-11T00:18:01.620Z,78.91
2017-02-11T00:19:02.295Z,79.07
2017-02-11T00:20:02.676Z,78.94
2017-02-11T00:21:03.212Z,78.97
2017-02-11T00:22:03.738Z,79.10
2017-02-11T00:23:04.268Z,79.05
2017-02-11T00:24:04.795Z,79.17
2017-02-11T00:25:05.329Z,79.07
2017-02-11T00:26:06.005Z,78.94
2017-02-11T00:27:06.392Z,78.94
2017-02-11T00:28:07.072Z,79.05
2017-02-11T00:29:07.460Z,79.05
2017-02-11T00:30:07.996Z,79.20
2017-02-11T00:31:08.539Z,79.23
2017-02-11T00:32:09.066Z,79.25
2017-02-11T00:33:09.736Z,79.28
2017-02-11T00:34:10.128Z,79.28
2017-02-11T00:35:10.655Z,79.23
2017-02-11T00:36:11.193Z,79.41
2017-02-11T00:37:11.718Z,79.57
2017-02-11T00:38:12.410Z,79.63
2017-02-11T00:39:12.782Z,79.57
2017-02-11T00:40:13.307Z,79.49
2017-02-11T00:41:13.840Z,79.55
2017-02-11T00:42:14.376Z,79.73
2017-02-11T00:43:14.908Z,79.73
2017-02-11T00:44:15.444Z,79.91
2017-02-11T00:45:16.116Z,79.86
2017-02-11T00:46:16.506Z,79.79
2017-02-11T00:47:17.032Z,80.02
2017-02-11T00:48:17.567Z,80.02
2017-02-11T00:49:18.238Z,80.07
2017-02-11T00:50:18.622Z,80.15
2017-02-11T00:51:19.149Z,80.15
2017-02-11T00:52:19.831Z,80.13
2017-02-11T00:53:20.212Z,80.41
2017-02-11T00:54:20.892Z,80.52
2017-02-11T00:55:21.277Z,80.49
2017-02-11T00:56:21.799Z,80.47
2017-02-11T00:57:22.334Z,80.44
2017-02-11T00:58:22.864Z,80.41
2017-02-11T00:59:23.393Z,80.71
2017-02-11T01:00:24.075Z,80.65
2017-02-11T01:01:24.452Z,80.92
2017-02-11T01:02:24.979Z,81.02
2017-02-11T01:03:25.515Z,81.16
2017-02-11T01:04:26.077Z,81.42
2017-02-11T01:05:26.574Z,81.50
2017-02-11T01:06:27.133Z,81.40
2017-02-11T01:07:27.635Z,81.32
2017-02-11T01:08:28.161Z,81.74
2017-02-11T01:09:28.695Z,81.76
2017-02-11T01:10:29.377Z,81.76
2017-02-11T01:11:29.764Z,81.90
2017-02-11T01:12:30.298Z,81.95
2017-02-11T01:13:30.827Z,81.79
2017-02-11T01:14:31.357Z,81.82
2017-02-11T01:15:31.906Z,81.90
2017-02-11T01:16:32.571Z,81.84
2017-02-11T01:17:32.951Z,82.00
2017-02-11T01:18:33.632Z,82.11
2017-02-11T01:19:34.014Z,82.21
2017-02-11T01:20:34.544Z,82.27
2017-02-11T01:21:35.076Z,82.51
2017-02-11T01:22:35.600Z,82.08
2017-02-11T01:23:36.134Z,82.24
2017-02-11T01:24:36.808Z,82.98
2017-02-11T01:25:37.195Z,83.28
2017-02-11T01:26:37.726Z,83.22
2017-02-11T01:27:38.254Z,83.38
2017-02-11T01:28:38.785Z,83.59
2017-02-11T01:29:39.311Z,84.12
2017-02-11T01:30:39.845Z,83.36
2017-02-11T01:31:40.374Z,82.88
2017-02-11T01:32:40.909Z,83.38
2017-02-11T01:33:41.454Z,84.81
2017-02-11T01:34:41.987Z,84.95
2017-02-11T01:35:42.499Z,84.47
2017-02-11T01:36:43.030Z,83.65
2017-02-11T01:37:43.706Z,83.62
2017-02-11T01:38:44.086Z,84.28
2017-02-11T01:39:44.621Z,85.08
2017-02-11T01:40:45.300Z,85.05
2017-02-11T01:41:45.689Z,85.50
2017-02-11T01:42:46.214Z,84.97
2017-02-11T01:43:46.889Z,84.31
2017-02-11T01:44:47.422Z,84.42
2017-02-11T01:45:47.948Z,83.78
2017-02-11T01:46:48.484Z,86.52
2017-02-11T01:47:48.863Z,86.28
2017-02-11T01:48:49.396Z,85.30
2017-02-11T01:49:49.923Z,84.84
2017-02-11T01:50:50.476Z,85.93
2017-02-11T01:51:50.984Z,86.73
2017-02-11T01:52:51.516Z,86.63
2017-02-11T01:53:52.054Z,87.43
2017-02-11T01:54:52.585Z,87.45
2017-02-11T01:55:53.122Z,87.45
2017-02-11T01:56:53.686Z,87.10
2017-02-11T01:57:54.188Z,86.57
2017-02-11T01:58:54.718Z,86.52
2017-02-11T01:59:55.392Z,87.00
2017-02-11T02:00:55.778Z,88.92
2017-02-11T02:01:56.307Z,88.87
2017-02-11T02:02:56.834Z,87.29
2017-02-11T02:03:57.514Z,87.82
2017-02-11T02:04:57.901Z,88.76
2017-02-11T02:05:58.430Z,88.84
2017-02-11T02:06:58.995Z,88.60
2017-02-11T02:07:59.494Z,88.89
2017-02-11T02:09:00.020Z,89.45
2017-02-11T02:10:00.703Z,89.14
2017-02-11T02:11:01.232Z,88.46
2017-02-11T02:12:01.617Z,89.19
2017-02-11T02:13:02.339Z,88.57
2017-02-11T02:14:02.717Z,88.52
2017-02-11T02:15:03.206Z,89.22
2017-02-11T02:16:03.739Z,89.03
2017-02-11T02:17:04.271Z,88.52
2017-02-11T02:18:04.803Z,88.50
2017-02-11T02:19:05.336Z,87.74
2017-02-11T02:20:05.862Z,88.62
2017-02-11T02:21:06.392Z,89.14
2017-02-11T02:22:07.067Z,89.08
2017-02-11T02:23:07.450Z,89.51
2017-02-11T02:24:07.985Z,89.54
2017-02-11T02:25:08.513Z,88.81
2017-02-11T02:26:09.044Z,89.35
2017-02-11T02:27:09.576Z,91.01
2017-02-11T02:28:10.106Z,90.98
2017-02-11T02:29:10.788Z,90.13
2017-02-11T02:30:11.165Z,89.86
2017-02-11T02:31:11.697Z,89.32
2017-02-11T02:32:12.375Z,88.81
2017-02-11T02:33:12.905Z,88.60
2017-02-11T02:34:13.288Z,88.31
2017-02-11T02:35:13.822Z,88.07
2017-02-11T02:36:14.364Z,87.69
2017-02-11T02:37:15.038Z,87.61
2017-02-11T02:38:15.423Z,87.67
2017-02-11T02:39:16.103Z,88.28
2017-02-11T02:40:16.497Z,88.07
2017-02-11T02:41:17.019Z,88.09
2017-02-11T02:42:17.698Z,88.44
2017-02-11T02:43:18.087Z,89.16
2017-02-11T02:44:18.615Z,89.48
2017-02-11T02:45:19.146Z,89.48
2017-02-11T02:46:19.675Z,89.32
2017-02-11T02:47:20.209Z,89.11
2017-02-11T02:48:20.736Z,89.35
2017-02-11T02:49:21.262Z,89.19
2017-02-11T02:50:21.797Z,89.16
2017-02-11T02:51:22.478Z,88.89
2017-02-11T02:52:23.046Z,88.89
2017-02-11T02:53:23.386Z,88.76
2017-02-11T02:54:23.926Z,88.62
2017-02-11T02:55:24.448Z,88.46
2017-02-11T02:56:24.983Z,88.23
2017-02-11T02:57:25.512Z,87.85
2017-02-11T02:58:26.049Z,87.67
2017-02-11T02:59:26.575Z,87.98
2017-02-11T03:00:27.112Z,87.56
2017-02-11T03:01:27.641Z,87.80
2017-02-11T03:02:28.169Z,87.74
2017-02-11T03:03:28.716Z,87.80
2017-02-11T03:04:29.239Z,88.36
2017-02-11T03:05:29.765Z,88.09
2017-02-11T03:06:30.293Z,88.15
2017-02-11T03:07:30.974Z,87.98
2017-02-11T03:08:31.353Z,87.96
2017-02-11T03:09:31.886Z,87.93
2017-02-11T03:10:32.417Z,87.59
2017-02-11T03:11:32.951Z,88.09
2017-02-11T03:12:33.481Z,88.12
2017-02-11T03:13:34.007Z,87.90
2017-02-11T03:14:34.543Z,88.33
2017-02-11T03:15:35.070Z,88.36
2017-02-11T03:16:35.611Z,87.90
2017-02-11T03:17:36.143Z,88.20
2017-02-11T03:18:36.679Z,88.50
2017-02-11T03:19:37.363Z,88.44
2017-02-11T03:20:37.742Z,88.09
2017-02-11T03:21:38.424Z,87.34
2017-02-11T03:22:38.803Z,87.13
2017-02-11T03:23:39.481Z,86.91
2017-02-11T03:24:39.863Z,88.12
2017-02-11T03:25:40.398Z,89.14
2017-02-11T03:26:41.069Z,89.14
2017-02-11T03:27:41.455Z,89.06
2017-02-11T03:28:42.133Z,89.08
2017-02-11T03:29:42.518Z,88.54
2017-02-11T03:30:43.050Z,88.41
2017-02-11T03:31:43.877Z,88.60
2017-02-11T03:32:44.119Z,88.89
2017-02-11T03:33:44.796Z,90.13
2017-02-11T03:34:45.176Z,89.88
2017-02-11T03:35:45.706Z,90.55
2017-02-11T03:36:46.238Z,90.09
2017-02-11T03:37:46.765Z,89.70
2017-02-11T03:38:47.299Z,90.09
2017-02-11T03:39:47.895Z,90.69
2017-02-11T03:40:48.385Z,91.49
2017-02-11T03:41:48.893Z,91.47
2017-02-11T03:42:49.571Z,91.49
2017-02-11T03:43:49.986Z,91.60
2017-02-11T03:44:50.489Z,91.65
2017-02-11T03:45:51.018Z,92.08
2017-02-11T03:46:51.548Z,91.97
2017-02-11T03:47:52.231Z,92.27
2017-02-11T03:48:52.615Z,92.32
2017-02-11T03:49:53.292Z,91.95
2017-02-11T03:50:53.699Z,91.79
2017-02-11T03:51:54.206Z,91.55
2017-02-11T03:52:54.740Z,91.47
2017-02-11T03:53:55.270Z,91.92
2017-02-11T03:54:55.833Z,93.35
2017-02-11T03:55:56.346Z,94.07
2017-02-11T03:56:56.868Z,94.12
2017-02-11T03:57:57.398Z,93.70
2017-02-11T03:58:57.931Z,93.10
2017-02-11T03:59:58.467Z,93.10
2017-02-11T04:00:59.017Z,92.76
2017-02-11T04:01:59.563Z,93.08
2017-02-11T04:03:00.067Z,92.91
2017-02-11T04:04:00.606Z,93.35
2017-02-11T04:05:01.135Z,93.13
2017-02-11T04:06:01.662Z,92.97
2017-02-11T04:07:02.196Z,93.08
2017-02-11T04:08:02.721Z,93.02
2017-02-11T04:09:03.256Z,93.32
2017-02-11T04:10:03.787Z,93.24
2017-02-11T04:11:04.322Z,92.97
2017-02-11T04:12:04.994Z,92.73
2017-02-11T04:13:05.373Z,93.29
2017-02-11T04:14:05.907Z,93.35
2017-02-11T04:15:06.434Z,93.37
2017-02-11T04:16:06.965Z,93.35
2017-02-11T04:17:07.498Z,93.99
2017-02-11T04:18:08.022Z,94.18
2017-02-11T04:19:08.554Z,94.02
2017-02-11T04:20:09.236Z,94.10
2017-02-11T04:21:09.617Z,94.29
2017-02-11T04:22:10.145Z,94.45
2017-02-11T04:23:10.674Z,94.56
2017-02-11T04:24:11.204Z,94.45
2017-02-11T04:25:11.731Z,94.34
2017-02-11T04:26:12.260Z,94.18
2017-02-11T04:27:12.794Z,94.02
2017-02-11T04:28:13.475Z,94.12
2017-02-11T04:29:13.855Z,94.12
2017-02-11T04:30:14.380Z,93.70
2017-02-11T04:31:14.913Z,93.56
2017-02-11T04:32:15.446Z,93.29
2017-02-11T04:33:16.119Z,92.99
2017-02-11T04:34:16.501Z,93.40
2017-02-11T04:35:17.038Z,93.72
2017-02-11T04:36:17.565Z,93.91
2017-02-11T04:37:18.101Z,93.72
2017-02-11T04:38:18.628Z,93.72
2017-02-11T04:39:19.184Z,94.07
2017-02-11T04:40:19.844Z,94.15
2017-02-11T04:41:20.230Z,94.29
2017-02-11T04:42:20.763Z,93.99
2017-02-11T04:43:21.302Z,94.07
2017-02-11T04:44:21.986Z,94.29
2017-02-11T04:45:22.368Z,94.91
2017-02-11T04:46:23.045Z,94.99
2017-02-11T04:47:23.426Z,95.01
2017-02-11T04:48:23.960Z,94.83
2017-02-11T04:49:24.489Z,94.91
2017-02-11T04:50:25.022Z,94.96
2017-02-11T04:51:25.698Z,95.07
2017-02-11T04:52:26.082Z,95.04
2017-02-11T04:53:26.613Z,94.86
2017-02-11T04:54:27.140Z,94.83
2017-02-11T04:55:27.670Z,94.50
2017-02-11T04:56:28.201Z,94.26
2017-02-11T04:57:28.732Z,94.02
2017-02-11T04:58:29.409Z,94.21
2017-02-11T04:59:29.792Z,94.15
2017-02-11T05:00:30.320Z,94.50
2017-02-11T05:01:30.999Z,94.75
2017-02-11T05:02:31.385Z,94.64
2017-02-11T05:03:31.918Z,94.40
2017-02-11T05:04:32.445Z,94.45
2017-02-11T05:05:33.126Z,94.59
2017-02-11T05:06:33.676Z,94.53
2017-02-11T05:07:34.054Z,94.50
2017-02-11T05:08:34.722Z,94.59
2017-02-11T05:09:35.118Z,94.53
2017-02-11T05:10:35.640Z,94.93
2017-02-11T05:11:36.168Z,95.10
2017-02-11T05:12:36.845Z,94.83
2017-02-11T05:13:37.378Z,94.53
2017-02-11T05:14:37.763Z,94.42
2017-02-11T05:15:38.293Z,94.37
2017-02-11T05:16:38.855Z,94.45
2017-02-11T05:17:39.351Z,94.72
2017-02-11T05:18:40.030Z,94.83
2017-02-11T05:19:40.413Z,94.59
2017-02-11T05:20:40.937Z,94.83
2017-02-11T05:21:41.469Z,94.88
2017-02-11T05:22:42.002Z,94.69
2017-02-11T05:23:42.540Z,94.42
2017-02-11T05:24:43.075Z,94.12
2017-02-11T05:25:43.616Z,94.31
2017-02-11T05:26:44.145Z,94.48
2017-02-11T05:27:44.679Z,94.53
2017-02-11T05:28:45.209Z,94.37
2017-02-11T05:29:45.745Z,94.31
2017-02-11T05:30:46.494Z,94.34
2017-02-11T05:31:46.824Z,94.42
2017-02-11T05:32:47.344Z,94.29
2017-02-11T05:33:47.865Z,94.12
2017-02-11T05:34:48.392Z,94.10
2017-02-11T05:35:48.926Z,94.07
2017-02-11T05:36:49.456Z,93.89
2017-02-11T05:37:49.991Z,93.64
2017-02-11T05:38:50.516Z,93.51
2017-02-11T05:39:51.051Z,93.72
2017-02-11T05:40:51.576Z,93.72
2017-02-11T05:41:52.111Z,93.62
2017-02-11T05:42:52.675Z,93.45
2017-02-11T05:43:53.171Z,93.26
2017-02-11T05:44:53.698Z,93.48
2017-02-11T05:45:54.232Z,93.40
2017-02-11T05:46:54.759Z,93.45
2017-02-11T05:47:55.298Z,93.37
2017-02-11T05:48:55.974Z,93.70
2017-02-11T05:49:56.354Z,93.83
2017-02-11T05:50:56.884Z,93.72
2017-02-11T05:51:57.561Z,93.96
2017-02-11T05:52:58.095Z,93.83
2017-02-11T05:53:58.479Z,93.89
2017-02-11T05:54:59.004Z,93.48
2017-02-11T05:55:59.535Z,93.59
2017-02-11T05:57:00.079Z,93.40
2017-02-11T05:58:00.598Z,93.18
2017-02-11T05:59:01.130Z,93.24
2017-02-11T06:00:01.662Z,93.05
2017-02-11T06:01:02.192Z,92.84
2017-02-11T06:02:02.717Z,93.10
2017-02-11T06:03:03.251Z,93.02
2017-02-11T06:04:03.927Z,93.21
2017-02-11T06:05:04.459Z,93.40
2017-02-11T06:06:04.849Z,93.10
2017-02-11T06:07:05.381Z,93.13
2017-02-11T06:08:05.921Z,93.67
2017-02-11T06:09:06.599Z,93.56
2017-02-11T06:10:06.986Z,93.54
2017-02-11T06:11:07.666Z,93.94
2017-02-11T06:12:08.044Z,94.12
2017-02-11T06:13:08.575Z,94.18
2017-02-11T06:14:09.108Z,94.04
2017-02-11T06:15:09.637Z,93.85
2017-02-11T06:16:10.171Z,93.91
2017-02-11T06:17:10.845Z,94.21
2017-02-11T06:18:11.230Z,94.53
2017-02-11T06:19:11.761Z,94.77
2017-02-11T06:20:12.288Z,95.12
2017-02-11T06:21:12.814Z,95.07
2017-02-11T06:22:13.354Z,94.75
2017-02-11T06:23:13.877Z,94.53
2017-02-11T06:24:14.413Z,94.31
2017-02-11T06:25:15.089Z,94.29
2017-02-11T06:26:15.476Z,94.18
2017-02-11T06:27:16.002Z,94.12
2017-02-11T06:28:16.531Z,94.34
2017-02-11T06:29:17.064Z,95.07
2017-02-11T06:30:17.593Z,94.80
2017-02-11T06:31:18.127Z,94.56
2017-02-11T06:32:18.657Z,94.48
2017-02-11T06:33:19.337Z,94.34
2017-02-11T06:34:19.715Z,94.29
2017-02-11T06:35:20.397Z,94.59
2017-02-11T06:36:20.778Z,94.93
2017-02-11T06:37:21.312Z,95.04
2017-02-11T06:38:21.839Z,94.48
2017-02-11T06:39:22.370Z,94.29
2017-02-11T06:40:22.899Z,94.23
2017-02-11T06:41:23.440Z,93.94
2017-02-11T06:42:24.105Z,93.62
2017-02-11T06:43:24.640Z,93.51
2017-02-11T06:44:25.024Z,93.45
2017-02-11T06:45:25.700Z,93.43
2017-02-11T06:46:26.092Z,93.32
2017-02-11T06:47:26.646Z,93.24
2017-02-11T06:48:27.156Z,93.40
2017-02-11T06:49:27.690Z,93.26
2017-02-11T06:50:28.229Z,93.08
2017-02-11T06:51:29.053Z,93.16
2017-02-11T06:52:29.434Z,93.59
2017-02-11T06:53:29.817Z,93.54
2017-02-11T06:54:30.349Z,93.37
2017-02-11T06:55:30.879Z,93.26
2017-02-11T06:56:31.417Z,93.43
2017-02-11T06:57:32.111Z,93.54
2017-02-11T06:58:32.476Z,93.24
2017-02-11T06:59:33.037Z,92.70
2017-02-11T07:00:33.536Z,92.54
2017-02-11T07:01:34.218Z,92.54
2017-02-11T07:02:34.599Z,92.70
2017-02-11T07:03:35.127Z,92.43
2017-02-11T07:04:35.660Z,92.24
2017-02-11T07:05:36.339Z,92.32
2017-02-11T07:06:36.867Z,92.30
2017-02-11T07:07:37.400Z,92.30
2017-02-11T07:08:37.927Z,92.27
2017-02-11T07:09:38.459Z,92.22
2017-02-11T07:10:38.845Z,92.35
2017-02-11T07:11:39.375Z,92.40
2017-02-11T07:12:39.902Z,92.08
2017-02-11T07:13:40.440Z,91.65
2017-02-11T07:14:40.979Z,91.07
2017-02-11T07:15:41.508Z,90.80
2017-02-11T07:16:42.033Z,90.36
2017-02-11T07:17:42.558Z,89.97
2017-02-11T07:18:43.093Z,90.07
2017-02-11T07:19:43.626Z,90.39
2017-02-11T07:20:44.157Z,89.70
2017-02-11T07:21:44.836Z,89.19
2017-02-11T07:22:45.214Z,89.88
2017-02-11T07:23:45.893Z,89.24
2017-02-11T07:24:46.273Z,89.97
2017-02-11T07:25:46.805Z,89.19
2017-02-11T07:26:47.335Z,88.76
2017-02-11T07:27:47.869Z,88.25
2017-02-11T07:28:48.401Z,88.97
2017-02-11T07:29:48.936Z,89.03
2017-02-11T07:30:49.640Z,89.67
2017-02-11T07:31:50.004Z,89.99
2017-02-11T07:32:50.540Z,89.14
2017-02-11T07:33:51.064Z,89.03
2017-02-11T07:34:51.598Z,89.11
2017-02-11T07:35:52.285Z,88.52
2017-02-11T07:36:52.660Z,87.51
2017-02-11T07:37:53.196Z,87.85
2017-02-11T07:38:53.869Z,87.40
2017-02-11T07:39:54.249Z,87.18
2017-02-11T07:40:54.781Z,87.13
2017-02-11T07:41:55.310Z,86.84
2017-02-11T07:42:55.852Z,86.71
2017-02-11T07:43:56.373Z,86.46
2017-02-11T07:44:56.908Z,86.30
2017-02-11T07:45:57.439Z,85.93
2017-02-11T07:46:57.972Z,86.12
2017-02-11T07:47:58.504Z,85.46
2017-02-11T07:48:59.036Z,85.21
2017-02-11T07:49:59.568Z,85.08
2017-02-11T07:51:00.245Z,85.08
2017-02-11T07:52:00.629Z,85.19
2017-02-11T07:53:01.160Z,84.84
2017-02-11T07:54:01.689Z,84.68
2017-02-11T07:55:02.222Z,84.26
2017-02-11T07:56:02.899Z,84.58
2017-02-11T07:57:03.432Z,84.50
2017-02-11T07:58:03.849Z,84.44
2017-02-11T07:59:04.347Z,84.17
2017-02-11T08:00:05.030Z,84.07
2017-02-11T08:01:05.412Z,84.07
2017-02-11T08:02:05.940Z,84.31
2017-02-11T08:03:06.476Z,83.91
2017-02-11T08:04:07.156Z,83.73
2017-02-11T08:05:07.539Z,83.91
2017-02-11T08:06:08.069Z,83.89
2017-02-11T08:07:08.615Z,83.75
2017-02-11T08:08:09.286Z,83.54
2017-02-11T08:09:09.665Z,83.40
2017-02-11T08:10:10.367Z,83.40
2017-02-11T08:11:10.730Z,83.33
2017-02-11T08:12:11.262Z,83.17
2017-02-11T08:13:11.801Z,83.12
2017-02-11T08:14:12.485Z,83.20
2017-02-11T08:15:12.872Z,83.25
2017-02-11T08:16:13.422Z,83.25
2017-02-11T08:17:13.929Z,83.33
2017-02-11T08:18:14.613Z,83.33
2017-02-11T08:19:14.996Z,83.25
2017-02-11T08:20:15.524Z,83.20
2017-02-11T08:21:16.056Z,83.01
2017-02-11T08:22:16.620Z,82.61
2017-02-11T08:23:17.117Z,82.21
2017-02-11T08:24:17.646Z,81.76
2017-02-11T08:25:18.176Z,81.42
2017-02-11T08:26:18.710Z,81.02
2017-02-11T08:27:19.244Z,80.71
2017-02-11T08:28:19.768Z,80.63
2017-02-11T08:29:20.302Z,79.99
2017-02-11T08:30:20.841Z,79.49
2017-02-11T08:31:21.506Z,79.71
2017-02-11T08:32:21.887Z,79.99
2017-02-11T08:33:22.423Z,78.73
2017-02-11T08:34:22.956Z,79.07
2017-02-11T08:35:23.486Z,79.65
2017-02-11T08:36:24.171Z,78.25
2017-02-11T08:37:24.557Z,77.49
2017-02-11T08:38:25.081Z,76.65
2017-02-11T08:39:25.612Z,76.65
2017-02-11T08:40:26.146Z,75.86
2017-02-11T08:41:26.671Z,75.81
2017-02-11T08:42:27.197Z,76.26
2017-02-11T08:43:27.732Z,76.28
2017-02-11T08:44:28.411Z,74.84
2017-02-11T08:45:28.798Z,75.21
2017-02-11T08:46:29.321Z,75.05
2017-02-11T08:47:29.999Z,73.74
2017-02-11T08:48:30.547Z,73.89
2017-02-11T08:49:30.915Z,74.47
2017-02-11T08:50:31.444Z,73.82
2017-02-11T08:51:31.974Z,74.52
2017-02-11T08:52:32.659Z,73.69
2017-02-11T08:53:33.045Z,73.77
2017-02-11T08:54:33.584Z,74.00
2017-02-11T08:55:34.115Z,74.32
2017-02-11T08:56:34.650Z,74.44
2017-02-11T08:57:35.187Z,73.32
2017-02-11T08:58:35.714Z,73.19
2017-02-11T08:59:36.249Z,73.16
2017-02-11T09:00:36.783Z,72.36
2017-02-11T09:01:37.307Z,72.53
2017-02-11T09:02:38.014Z,71.10
2017-02-11T09:03:38.370Z,71.34
2017-02-11T09:04:38.900Z,70.68
2017-02-11T09:05:39.426Z,70.04
2017-02-11T09:06:39.955Z,70.48
2017-02-11T09:07:40.486Z,71.03
2017-02-11T09:08:41.019Z,70.97
2017-02-11T09:09:41.559Z,70.87
2017-02-11T09:10:42.078Z,70.48
2017-02-11T09:11:42.613Z,71.47
2017-02-11T09:12:43.285Z,71.65
2017-02-11T09:13:43.671Z,72.75
2017-02-11T09:15:44.730Z,73.42
2017-02-11T09:16:45.256Z,74.13
2017-02-11T09:17:45.803Z,74.52
2017-02-11T09:18:46.319Z,74.40
2017-02-11T09:19:46.855Z,74.40
2017-02-11T09:20:47.417Z,74.84
2017-02-11T09:21:48.060Z,74.81
2017-02-11T09:22:48.456Z,75.49
2017-02-11T09:23:48.975Z,75.18
2017-02-11T09:24:49.527Z,75.49
2017-02-11T09:25:50.038Z,75.05
2017-02-11T09:26:50.573Z,74.97
2017-02-11T09:27:51.247Z,74.36
2017-02-11T09:28:51.641Z,74.34
2017-02-11T09:29:52.159Z,72.88
2017-02-11T09:30:52.687Z,72.46
2017-02-11T09:31:53.221Z,72.59
2017-02-11T09:32:53.900Z,72.28
2017-02-11T09:33:54.288Z,71.81
2017-02-11T09:34:54.964Z,71.21
2017-02-11T09:35:55.356Z,70.48
2017-02-11T09:36:55.883Z,70.48
2017-02-11T09:37:56.422Z,70.74
2017-02-11T09:38:56.955Z,71.60
2017-02-11T09:39:57.638Z,71.65
2017-02-11T09:40:58.037Z,71.39
2017-02-11T09:41:58.559Z,71.54
2017-02-11T09:42:59.086Z,70.43
2017-02-11T09:43:59.621Z,70.19
2017-02-11T09:45:00.148Z,70.43
2017-02-11T09:46:00.826Z,69.70
2017-02-11T09:47:01.210Z,69.90
2017-02-11T09:48:01.743Z,71.03
2017-02-11T09:49:02.285Z,71.78
2017-02-11T09:50:02.804Z,71.39
2017-02-11T09:51:03.333Z,71.65
2017-02-11T09:52:03.868Z,71.99
2017-02-11T09:53:04.548Z,72.36
2017-02-11T09:54:04.929Z,72.61
2017-02-11T09:55:05.608Z,73.06
2017-02-11T09:56:05.993Z,73.35
2017-02-11T09:57:06.523Z,73.48
2017-02-11T09:58:07.051Z,73.03
2017-02-11T09:59:07.729Z,73.01
2017-02-11T10:00:08.111Z,73.22
2017-02-11T10:01:08.643Z,73.50
2017-02-11T10:02:09.172Z,73.24
2017-02-11T10:03:09.858Z,72.90
2017-02-11T10:04:10.234Z,73.50
2017-02-11T10:05:10.765Z,73.42
2017-02-11T10:06:11.439Z,73.89
2017-02-11T10:07:11.821Z,74.05
2017-02-11T10:08:12.500Z,74.58
2017-02-11T10:09:12.903Z,74.71
2017-02-11T10:10:13.413Z,74.63
2017-02-11T10:11:13.945Z,75.26
2017-02-11T10:12:14.474Z,75.65
2017-02-11T10:13:15.020Z,75.78
2017-02-11T10:14:15.539Z,75.76
2017-02-11T10:15:16.067Z,75.76
2017-02-11T10:16:16.747Z,75.94
2017-02-11T10:17:17.134Z,75.94
2017-02-11T10:18:17.669Z,75.21
2017-02-11T10:19:18.200Z,75.21
2017-02-11T10:21:19.268Z,75.07
2017-02-11T10:22:19.803Z,75.21
2017-02-11T10:23:20.483Z,75.26
2017-02-11T10:24:21.009Z,74.84
2017-02-11T10:25:21.546Z,74.81
2017-02-11T10:26:21.929Z,74.21
2017-02-11T10:27:22.458Z,73.45
2017-02-11T10:28:22.990Z,73.55
2017-02-11T10:29:23.515Z,74.13
2017-02-11T10:30:24.046Z,74.40
2017-02-11T10:31:24.615Z,73.87
2017-02-11T10:32:25.114Z,73.95
2017-02-11T10:33:25.678Z,74.05
2017-02-11T10:34:26.175Z,74.29
2017-02-11T10:35:26.706Z,73.77
2017-02-11T10:36:27.236Z,73.48
2017-02-11T10:37:27.915Z,73.32
2017-02-11T10:38:28.443Z,73.16
2017-02-11T10:39:28.827Z,73.48
2017-02-11T10:40:29.360Z,73.48
2017-02-11T10:41:29.890Z,73.32
2017-02-11T10:42:30.419Z,73.74
2017-02-11T10:43:30.952Z,73.06
2017-02-11T10:44:31.781Z,73.37
2017-02-11T10:45:32.010Z,73.08
2017-02-11T10:46:32.540Z,73.61
2017-02-11T10:47:33.074Z,73.95
2017-02-11T10:48:33.600Z,73.48
2017-02-11T10:49:34.130Z,73.58
2017-02-11T10:50:34.664Z,74.08
2017-02-11T10:51:35.202Z,73.71
2017-02-11T10:52:35.723Z,73.82
2017-02-11T10:53:36.257Z,73.53
2017-02-11T10:54:36.927Z,73.37
2017-02-11T10:55:37.309Z,73.37
2017-02-11T10:56:37.846Z,73.22
2017-02-11T10:57:38.376Z,73.37
2017-02-11T10:58:38.907Z,73.03
2017-02-11T10:59:39.439Z,73.32
2017-02-11T11:00:40.005Z,72.80
2017-02-11T11:01:40.517Z,72.41
2017-02-11T11:02:41.045Z,72.53
2017-02-11T11:03:41.726Z,72.88
2017-02-11T11:04:42.112Z,72.90
2017-02-11T11:05:42.641Z,72.90
2017-02-11T11:06:43.170Z,73.30
2017-02-11T11:07:43.853Z,72.38
2017-02-11T11:08:44.235Z,72.64
2017-02-11T11:09:44.767Z,72.64
2017-02-11T11:10:45.298Z,72.90
2017-02-11T11:11:45.972Z,72.77
2017-02-11T11:12:46.358Z,73.06
2017-02-11T11:13:47.039Z,73.03
2017-02-11T11:14:47.423Z,73.37
2017-02-11T11:15:47.988Z,73.74
2017-02-11T11:16:48.482Z,73.55
2017-02-11T11:17:49.014Z,73.77
2017-02-11T11:18:49.545Z,73.95
2017-02-11T11:19:50.086Z,74.26
2017-02-11T11:20:50.604Z,74.40
2017-02-11T11:21:51.132Z,74.00
2017-02-11T11:22:51.745Z,74.13
2017-02-11T11:23:52.194Z,74.32
2017-02-11T11:24:52.872Z,74.11
2017-02-11T11:25:53.407Z,74.58
2017-02-11T11:26:53.935Z,74.21
2017-02-11T11:27:54.321Z,74.68
2017-02-11T11:28:54.847Z,74.24
2017-02-11T11:29:55.401Z,73.87
2017-02-11T11:30:55.910Z,74.36
2017-02-11T11:31:56.587Z,73.95
2017-02-11T11:32:56.973Z,74.55
2017-02-11T11:33:57.496Z,73.40
2017-02-11T11:34:58.032Z,73.50
2017-02-11T11:35:58.561Z,73.32
2017-02-11T11:36:59.095Z,72.56
2017-02-11T11:37:59.661Z,72.80
2017-02-11T11:39:00.299Z,72.95
2017-02-11T11:40:00.836Z,72.83
2017-02-11T11:41:01.215Z,72.80
2017-02-11T11:42:01.750Z,72.77
2017-02-11T11:43:02.288Z,73.27
2017-02-11T11:44:02.820Z,72.51
2017-02-11T11:45:03.351Z,72.01
2017-02-11T11:46:03.884Z,72.01
2017-02-11T11:47:04.412Z,72.36
2017-02-11T11:48:05.097Z,73.01
2017-02-11T11:49:05.478Z,71.73
2017-02-11T11:50:06.033Z,72.01
2017-02-11T11:51:06.540Z,71.75
2017-02-11T11:52:07.068Z,72.25
2017-02-11T11:53:07.597Z,72.83
2017-02-11T11:54:08.277Z,73.01
2017-02-11T11:55:08.659Z,72.48
2017-02-11T11:56:09.192Z,72.93
2017-02-11T11:57:09.724Z,71.47
2017-02-11T11:58:10.403Z,71.86
2017-02-11T11:59:10.785Z,71.96
2017-02-11T12:00:11.460Z,71.42
2017-02-11T12:01:11.846Z,71.26
2017-02-11T12:02:12.523Z,71.15
2017-02-11T12:03:13.053Z,70.48
2017-02-11T12:04:13.582Z,71.03
2017-02-11T12:05:13.965Z,71.42
2017-02-11T12:06:14.531Z,71.31
2017-02-11T12:07:15.028Z,71.49
2017-02-11T12:08:15.561Z,71.39
2017-02-11T12:09:16.093Z,71.26
2017-02-11T12:10:16.617Z,71.36
2017-02-11T12:11:17.162Z,71.60
2017-02-11T12:12:17.828Z,71.78
2017-02-11T12:13:18.213Z,70.87
2017-02-11T12:14:18.743Z,70.11
2017-02-11T12:15:19.277Z,70.64
2017-02-11T12:16:19.952Z,71.39
2017-02-11T12:17:20.484Z,71.18
2017-02-11T12:18:20.866Z,71.05
2017-02-11T12:19:21.401Z,71.05
2017-02-11T12:20:21.926Z,71.03
2017-02-11T12:21:22.460Z,71.89
2017-02-11T12:22:22.986Z,70.89
2017-02-11T12:23:23.525Z,71.10
2017-02-11T12:24:24.063Z,71.75
2017-02-11T12:25:24.736Z,71.65
2017-02-11T12:26:25.133Z,70.76
2017-02-11T12:27:25.657Z,71.73
2017-02-11T12:28:26.189Z,71.89
2017-02-11T12:29:26.723Z,72.53
2017-02-11T12:30:27.247Z,72.04
2017-02-11T12:31:27.787Z,71.94
2017-02-11T12:32:28.321Z,72.14
2017-02-11T12:33:28.847Z,71.52
2017-02-11T12:34:29.528Z,71.47
2017-02-11T12:35:30.056Z,71.44
2017-02-11T12:36:30.443Z,71.89
2017-02-11T12:37:30.974Z,71.65
2017-02-11T12:38:31.502Z,72.25
2017-02-11T12:39:32.034Z,71.81
2017-02-11T12:40:33.018Z,70.89
2017-02-11T12:41:33.096Z,71.42
2017-02-11T12:42:33.630Z,71.60
2017-02-11T12:43:34.162Z,71.67
2017-02-11T12:44:34.686Z,72.04
2017-02-11T12:45:35.220Z,71.86
2017-02-11T12:46:35.753Z,71.57
2017-02-11T12:47:36.282Z,71.54
2017-02-11T12:48:36.810Z,70.74
2017-02-11T12:49:37.345Z,71.42
2017-02-11T12:50:37.908Z,70.71
2017-02-11T12:51:38.411Z,70.87
2017-02-11T12:52:38.937Z,69.98
2017-02-11T12:53:39.472Z,69.88
2017-02-11T12:54:40.005Z,69.46
2017-02-11T12:55:40.682Z,68.71
2017-02-11T12:56:41.065Z,68.94
2017-02-11T12:57:41.602Z,68.76
2017-02-11T12:58:42.136Z,69.18
2017-02-11T12:59:42.669Z,69.67
2017-02-11T13:00:43.204Z,69.44
2017-02-11T13:01:43.733Z,69.70